Time;durP1;ratioP1;P1;durP2;ratioP2;P2;SDS_P1;SDS_P2;PMS_P1;PMS_P2;Temp;Humidity;BMP_temperature;BMP_pressure;BME280_temperature;BME280_humidity;BME280_pressure;Samples;Min_cycle;Max_cycle;Signal;HPM_P1;HPM_P2
2022/02/08 00:00:24;;;;;;;6.72;2.63;;;17.60;59.60;;;;;;5072505;28;20016;-78
2022/02/08 00:02:53;;;;;;;8.30;2.67;;;17.50;59.00;;;;;;5072267;28;20439;-78
2022/02/08 00:05:20;;;;;;;5.90;2.22;;;17.50;59.30;;;;;;5072397;28;20107;-78
2022/02/08 00:07:50;;;;;;;7.85;2.13;;;17.50;59.60;;;;;;5072004;28;20518;-77
2022/02/08 00:10:17;;;;;;;7.05;2.17;;;17.50;59.90;;;;;;5074705;28;20020;-79
2022/02/08 00:12:43;;;;;;;7.05;2.65;;;17.40;60.10;;;;;;5092200;28;20036;-78
2022/02/08 00:15:09;;;;;;;8.73;2.90;;;17.40;60.60;;;;;;5092517;28;20537;-78
2022/02/08 00:17:35;;;;;;;7.65;2.95;;;17.40;60.30;;;;;;5091818;28;20052;-78
2022/02/08 00:20:03;;;;;;;9.25;3.00;;;17.30;59.80;;;;;;5092441;28;20046;-78
2022/02/08 00:22:30;;;;;;;7.10;2.42;;;17.30;59.80;;;;;;5074454;28;20390;-79
2022/02/08 00:24:56;;;;;;;9.60;2.05;;;17.30;60.50;;;;;;5092647;28;20447;-79
2022/02/08 00:27:22;;;;;;;7.90;2.58;;;17.20;60.00;;;;;;5092206;28;20388;-78
2022/02/08 00:29:47;;;;;;;8.38;2.55;;;17.30;60.20;;;;;;5091932;28;20020;-78
2022/02/08 00:32:13;;;;;;;6.10;2.28;;;17.20;60.50;;;;;;5091850;28;20036;-78
2022/02/08 00:34:39;;;;;;;12.23;2.90;;;17.20;60.60;;;;;;5091917;28;20495;-79
2022/02/08 00:37:04;;;;;;;8.70;2.80;;;17.20;60.60;;;;;;5091646;28;20150;-78
2022/02/08 00:39:31;;;;;;;6.20;2.33;;;17.20;65.10;;;;;;5091669;28;20462;-79
2022/02/08 00:42:03;;;;;;;7.68;2.45;;;17.20;65.80;;;;;;5091888;28;20031;-78
2022/02/08 00:44:36;;;;;;;9.55;2.67;;;17.20;63.10;;;;;;5092411;28;20379;-79
2022/02/08 00:49:47;;;;;;;8.30;2.58;;;17.10;62.90;;;;;;5091884;28;20035;-78
2022/02/08 00:52:16;;;;;;;8.05;2.78;;;17.10;63.30;;;;;;5091662;28;20036;-78
2022/02/08 00:54:46;;;;;;;6.78;2.45;;;17.10;63.50;;;;;;5091482;28;20016;-79
2022/02/08 00:57:12;;;;;;;8.77;3.22;;;17.10;64.30;;;;;;5091767;28;20038;-79
2022/02/08 00:59:38;;;;;;;8.13;2.75;;;17.10;64.00;;;;;;5091550;28;20095;-78
2022/02/08 01:02:07;;;;;;;5.68;2.30;;;17.10;63.90;;;;;;5091641;28;20028;-79
2022/02/08 01:04:34;;;;;;;8.57;2.65;;;17.10;64.50;;;;;;5091539;28;20428;-78
2022/02/08 01:07:04;;;;;;;6.65;2.55;;;17.10;65.50;;;;;;5091524;28;20396;-78
2022/02/08 01:09:48;;;;;;;4.45;1.95;;;17.10;66.50;;;;;;5091410;28;20024;-78
2022/02/08 01:12:15;;;;;;;6.30;2.50;;;17.10;66.70;;;;;;5091406;28;20028;-79
2022/02/08 01:14:43;;;;;;;7.82;2.35;;;17.00;66.60;;;;;;5091288;28;20031;-79
2022/02/08 01:17:10;;;;;;;6.78;2.63;;;17.00;67.30;;;;;;5091092;28;20435;-78
2022/02/08 01:19:41;;;;;;;5.53;2.33;;;17.00;67.70;;;;;;5091192;28;20035;-78
2022/02/08 01:22:06;;;;;;;8.02;2.45;;;17.00;67.90;;;;;;5091406;28;20028;-78
2022/02/08 01:24:32;;;;;;;6.32;2.25;;;16.90;68.00;;;;;;5091146;28;20026;-78
2022/02/08 01:27:06;;;;;;;7.30;2.63;;;16.90;68.50;;;;;;5091592;28;20100;-79
2022/02/08 01:29:39;;;;;;;7.55;2.22;;;16.90;68.00;;;;;;5091179;28;20114;-79
2022/02/08 01:47:47;;;;;;;8.25;2.72;;;16.80;69.10;;;;;;5090847;28;20093;-78
2022/02/08 01:50:16;;;;;;;5.38;2.10;;;17.80;84.10;;;;;;5091151;28;20039;-78
2022/02/08 01:52:42;;;;;;;6.35;2.17;;;16.80;78.30;;;;;;5092175;28;20043;-78
2022/02/08 01:55:10;;;;;;;7.15;2.22;;;16.80;77.00;;;;;;5076967;28;20020;-77
2022/02/08 01:57:37;;;;;;;8.23;2.55;;;16.70;76.50;;;;;;5094826;28;20028;-78
2022/02/08 02:00:05;;;;;;;6.85;2.00;;;16.80;76.70;;;;;;5095124;28;20012;-77
2022/02/08 02:02:31;;;;;;;4.55;2.00;;;16.70;77.30;;;;;;5094666;28;20073;-78
2022/02/08 02:04:56;;;;;;;7.35;2.22;;;16.70;77.10;;;;;;5095312;28;20425;-78
2022/02/08 02:07:23;;;;;;;6.32;1.95;;;16.70;76.60;;;;;;5094896;28;20082;-78
2022/02/08 02:09:48;;;;;;;5.65;2.33;;;16.70;76.20;;;;;;5094679;28;20026;-78
2022/02/08 02:12:14;;;;;;;5.20;1.70;;;16.70;77.00;;;;;;5094789;28;20407;-78
2022/02/08 02:14:41;;;;;;;6.55;2.17;;;16.60;77.00;;;;;;5094656;28;20095;-77
2022/02/08 02:17:09;;;;;;;5.28;2.13;;;16.60;76.90;;;;;;5094437;28;20068;-77
2022/02/08 02:19:36;;;;;;;6.55;2.35;;;16.60;76.80;;;;;;5094553;28;20020;-78
2022/02/08 02:22:05;;;;;;;8.65;2.50;;;16.60;76.70;;;;;;5094578;28;20024;-78
2022/02/08 02:24:31;;;;;;;7.60;2.25;;;16.60;76.70;;;;;;5094328;28;20383;-78
2022/02/08 02:26:58;;;;;;;5.95;1.85;;;16.60;77.00;;;;;;5094840;28;20028;-78
2022/02/08 02:29:25;;;;;;;8.15;2.22;;;16.50;77.10;;;;;;5094650;28;20023;-78
2022/02/08 02:31:51;;;;;;;5.40;1.67;;;16.50;77.50;;;;;;5094068;28;20062;-78
2022/02/08 02:34:19;;;;;;;6.65;1.98;;;16.50;78.10;;;;;;5094405;28;20125;-78
2022/02/08 02:36:45;;;;;;;8.13;2.38;;;16.50;78.70;;;;;;5109846;28;20383;-78
2022/02/08 02:39:12;;;;;;;7.68;2.95;;;16.50;79.30;;;;;;5094093;28;20132;-78
2022/02/08 02:41:40;;;;;;;6.20;1.90;;;16.50;79.60;;;;;;5094076;28;20102;-78
2022/02/08 02:44:08;;;;;;;6.47;1.90;;;16.50;80.30;;;;;;5094253;28;20527;-78
2022/02/08 02:46:34;;;;;;;6.53;2.05;;;16.50;81.10;;;;;;5094034;28;20020;-78
2022/02/08 02:49:00;;;;;;;5.30;1.80;;;16.40;82.60;;;;;;5094109;28;20548;-78
2022/02/08 02:51:26;;;;;;;8.13;2.08;;;16.40;85.60;;;;;;5094392;28;20033;-78
2022/02/08 02:53:52;;;;;;;8.00;2.75;;;16.40;85.60;;;;;;5093881;28;20056;-78
2022/02/08 02:56:18;;;;;;;5.90;2.28;;;16.40;86.90;;;;;;5094003;28;20024;-78
2022/02/08 02:58:43;;;;;;;4.97;1.80;;;16.40;87.60;;;;;;5093693;28;20028;-78
2022/02/08 03:01:20;;;;;;;5.78;1.70;;;16.40;86.50;;;;;;5093951;28;20023;-78
2022/02/08 03:03:55;;;;;;;6.85;2.08;;;16.40;83.70;;;;;;5093148;28;20028;-78
2022/02/08 03:20:04;;;;;;;6.03;2.03;;;16.30;85.60;;;;;;5093985;28;20036;-78
2022/02/08 03:22:30;;;;;;;7.07;1.95;;;16.30;79.50;;;;;;5093248;28;20012;-78
2022/02/08 03:24:55;;;;;;;4.40;1.58;;;16.30;78.40;;;;;;5093946;28;20047;-78
2022/02/08 03:27:21;;;;;;;6.53;1.60;;;16.30;78.20;;;;;;5093408;28;20020;-78
2022/02/08 03:29:47;;;;;;;5.03;1.90;;;16.20;77.60;;;;;;5093144;28;20040;-78
2022/02/08 03:32:14;;;;;;;4.25;1.60;;;16.30;78.50;;;;;;5093102;28;20074;-79
2022/02/08 03:34:40;;;;;;;4.80;1.95;;;16.30;79.70;;;;;;5093044;28;20032;-78
2022/02/08 03:37:06;;;;;;;6.40;2.28;;;16.30;79.10;;;;;;5093265;28;20054;-78
2022/02/08 03:39:37;;;;;;;4.38;1.42;;;16.30;80.00;;;;;;5092534;28;20069;-78
2022/02/08 03:42:17;;;;;;;5.28;1.70;;;16.30;80.20;;;;;;5092982;28;20012;-78
2022/02/08 03:44:47;;;;;;;3.22;1.10;;;16.30;80.20;;;;;;5092864;28;20028;-78
2022/02/08 03:47:14;;;;;;;4.88;1.60;;;16.30;79.80;;;;;;5093027;28;20016;-78
2022/02/08 03:49:40;;;;;;;4.60;1.30;;;16.40;79.40;;;;;;5092752;28;20024;-78
2022/02/08 03:52:06;;;;;;;4.40;1.60;;;16.40;79.40;;;;;;5092859;28;20039;-77
2022/02/08 03:54:34;;;;;;;5.30;1.42;;;16.40;79.00;;;;;;5092710;28;20024;-79
2022/02/08 03:57:00;;;;;;;3.13;1.20;;;16.40;78.40;;;;;;5093152;28;20032;-79
2022/02/08 03:59:26;;;;;;;5.47;1.90;;;16.40;78.10;;;;;;5093095;28;20552;-79
2022/02/08 04:07:03;;;;;;;4.70;1.48;;;16.50;75.70;;;;;;5093185;28;20039;-79
2022/02/08 04:09:29;;;;;;;2.80;1.05;;;16.40;73.80;;;;;;5093040;28;20102;-79
2022/02/08 04:12:00;;;;;;;4.35;1.83;;;16.50;72.70;;;;;;5107936;28;20115;-78
2022/02/08 04:16:53;;;;;;;3.08;1.08;;;16.50;72.40;;;;;;5091797;28;20020;-79
2022/02/08 04:19:26;;;;;;;5.10;1.60;;;16.50;71.70;;;;;;5092500;28;20051;-78
2022/02/08 04:33:07;;;;;;;3.08;1.17;;;16.50;71.70;;;;;;5092212;28;20066;-78
2022/02/08 04:38:22;;;;;;;2.63;1.10;;;16.50;71.00;;;;;;5091627;28;20079;-78
2022/02/08 04:40:53;;;;;;;2.63;0.82;;;16.50;70.80;;;;;;5091761;28;20468;-78
2022/02/08 04:47:16;;;;;;;4.10;1.05;;;16.50;70.40;;;;;;5049495;28;20017;-79
2022/02/08 04:49:05;;;;;;;3.30;1.05;;;16.50;70.40;;;;;;5078113;28;20499;-79
2022/02/08 04:51:45;;;;;;;3.83;0.90;;;16.50;70.60;;;;;;5091535;28;20032;-77
2022/02/08 04:54:18;;;;;;;3.90;0.90;;;16.50;70.30;;;;;;5091797;28;20028;-79
2022/02/08 04:57:03;;;;;;;3.00;0.90;;;16.50;69.70;;;;;;5091632;28;20420;-79
2022/02/08 04:59:55;;;;;;;1.92;0.88;;;16.60;70.20;;;;;;5092068;28;20388;-78
2022/02/08 05:45:25;;;;;;;2.20;0.80;;;16.60;69.30;;;;;;5070964;28;20428;-79
2022/02/08 05:47:53;;;;;;;1.42;0.70;;;16.60;69.40;;;;;;5070810;28;20021;-79
2022/02/08 05:55:29;;;;;;;2.58;0.80;;;16.60;68.60;;;;;;5071062;28;20024;-80
2022/02/08 05:57:56;;;;;;;3.65;0.82;;;16.70;68.50;;;;;;5070533;28;20028;-79
2022/02/08 06:00:27;;;;;;;2.40;0.60;;;16.70;68.50;;;;;;5075350;28;20031;-78
2022/02/08 06:02:55;;;;;;;2.20;0.68;;;16.70;68.20;;;;;;5072667;28;20035;-78
2022/02/08 06:05:22;;;;;;;1.63;0.52;;;16.70;68.20;;;;;;5090988;28;20024;-79
2022/02/08 06:07:48;;;;;;;0.93;0.70;;;16.70;68.00;;;;;;5090720;28;20024;-80
2022/02/08 06:10:14;;;;;;;1.52;0.57;;;16.80;68.00;;;;;;5090928;28;20069;-79
2022/02/08 06:12:43;;;;;;;1.65;0.60;;;16.80;67.70;;;;;;5090578;28;20423;-80
2022/02/08 06:15:11;;;;;;;1.50;0.57;;;16.80;67.80;;;;;;5090899;28;20024;-80
2022/02/08 06:17:36;;;;;;;1.67;0.65;;;16.90;67.90;;;;;;5090314;28;20028;-80
2022/02/08 06:20:03;;;;;;;1.88;0.47;;;16.90;67.90;;;;;;5090942;28;20046;-80
2022/02/08 06:22:29;;;;;;;2.10;0.47;;;17.00;67.90;;;;;;5091135;28;20478;-79
2022/02/08 06:24:54;;;;;;;2.17;0.70;;;17.00;68.10;;;;;;5090720;28;20028;-79
2022/02/08 06:27:28;;;;;;;1.75;0.60;;;17.00;68.10;;;;;;5090765;28;20020;-79
2022/02/08 06:29:54;;;;;;;2.20;0.70;;;17.00;68.00;;;;;;5090497;28;20028;-80
2022/02/08 06:32:19;;;;;;;1.65;0.70;;;17.10;69.10;;;;;;5090617;28;20819;-79
2022/02/08 06:34:45;;;;;;;2.72;0.70;;;17.10;69.10;;;;;;5090557;28;20403;-79
2022/02/08 06:37:14;;;;;;;3.08;0.70;;;17.20;69.50;;;;;;5090670;28;20031;-79
2022/02/08 06:39:39;;;;;;;1.52;0.50;;;17.20;69.90;;;;;;5092842;28;20024;-78
2022/02/08 07:35:27;;;;;;;2.33;0.70;;;17.10;64.10;;;;;;5129605;27;20111;-79
2022/02/08 07:37:59;;;;;;;1.52;0.63;;;17.10;64.70;;;;;;5129287;28;20031;-78
2022/02/08 07:43:04;;;;;;;2.83;0.80;;;17.20;64.70;;;;;;5129201;28;20023;-76
2022/02/08 07:45:30;;;;;;;3.28;0.50;;;17.20;64.70;;;;;;5129434;28;20080;-76
2022/02/08 07:47:55;;;;;;;2.78;0.50;;;17.20;64.70;;;;;;5129751;28;20036;-76
2022/02/08 07:50:26;;;;;;;2.85;1.08;;;17.30;64.60;;;;;;5129343;28;20026;-76
2022/02/08 07:52:52;;;;;;;1.23;0.60;;;17.30;64.60;;;;;;5110744;28;20023;-76
2022/02/08 07:55:20;;;;;;;6.93;0.70;;;17.30;64.70;;;;;;5129483;28;20022;-75
2022/02/08 07:57:45;;;;;;;10.75;6.45;;;17.30;64.70;;;;;;5110532;28;20432;-76
2022/02/08 08:00:12;;;;;;;3.90;1.75;;;17.30;66.00;;;;;;5110852;28;20020;-76
2022/02/08 08:02:38;;;;;;;2.15;0.70;;;17.30;66.90;;;;;;5128883;28;20081;-75
2022/02/08 08:05:05;;;;;;;2.63;1.20;;;17.30;66.80;;;;;;5129133;28;20023;-75
2022/02/08 08:07:30;;;;;;;3.58;1.23;;;17.30;66.90;;;;;;5128322;28;20502;-75
2022/02/08 08:09:56;;;;;;;4.07;1.30;;;17.30;67.10;;;;;;5128755;28;20105;-76
2022/02/08 08:12:23;;;;;;;3.20;1.05;;;17.30;67.30;;;;;;5110535;28;20065;-75
2022/02/08 08:14:50;;;;;;;2.78;0.80;;;17.30;67.00;;;;;;5110172;28;20124;-77
2022/02/08 08:19:54;;;;;;;9.98;1.65;;;17.30;67.40;;;;;;5128577;28;20592;-76
2022/02/08 08:22:19;;;;;;;3.95;1.20;;;17.30;68.40;;;;;;5110302;28;20054;-77
2022/02/08 08:24:46;;;;;;;3.80;0.50;;;17.30;68.50;;;;;;5127960;28;20475;-76
2022/02/08 08:27:13;;;;;;;3.85;0.80;;;17.30;68.30;;;;;;5109477;28;20085;-75
2022/02/08 08:29:39;;;;;;;3.97;0.90;;;17.20;68.60;;;;;;5108315;28;20036;-75
2022/02/08 08:32:06;;;;;;;5.88;1.05;;;17.20;68.70;;;;;;5126185;28;20019;-75
2022/02/08 08:34:33;;;;;;;3.63;0.90;;;17.20;68.60;;;;;;5122802;28;20578;-77
2022/02/08 08:36:59;;;;;;;3.75;0.93;;;17.20;68.80;;;;;;5104464;28;20471;-77
2022/02/08 08:39:32;;;;;;;4.70;0.80;;;17.20;68.90;;;;;;5123617;28;20027;-77
2022/02/08 08:44:55;;;;;;;2.92;0.50;;;17.20;68.70;;;;;;5120774;28;20031;-76
2022/02/08 08:52:54;;;;;;;4.63;1.02;;;17.20;68.50;;;;;;5084599;28;20032;-78
2022/02/08 08:55:20;;;;;;;4.22;0.77;;;17.10;68.50;;;;;;5094994;28;20087;-76
2022/02/08 08:57:46;;;;;;;4.93;0.75;;;17.20;68.60;;;;;;5113521;28;20047;-78
2022/02/08 09:00:12;;;;;;;3.63;0.80;;;17.20;68.70;;;;;;5113769;28;20471;-78
2022/02/08 09:02:38;;;;;;;5.75;0.93;;;17.30;68.40;;;;;;5114134;28;20023;-76
2022/02/08 09:05:09;;;;;;;17.48;0.73;;;17.30;68.20;;;;;;5114630;28;20387;-76
2022/02/08 09:07:36;;;;;;;4.70;0.80;;;17.40;68.10;;;;;;5113913;28;20027;-81
2022/02/08 09:10:03;;;;;;;5.80;0.60;;;17.40;67.60;;;;;;5114644;28;20107;-79
2022/02/08 09:12:56;;;;;;;4.22;1.17;;;17.50;67.80;;;;;;5114877;28;20022;-76
2022/02/08 09:20:54;;;;;;;4.03;0.93;;;17.60;67.20;;;;;;5114508;28;20023;-78
2022/02/08 09:28:29;;;;;;;4.45;0.57;;;17.70;66.70;;;;;;5113860;28;20026;-76
2022/02/08 09:31:00;;;;;;;3.58;0.50;;;17.80;66.60;;;;;;5114163;28;20027;-75
2022/02/08 09:33:26;;;;;;;3.08;0.50;;;17.80;66.50;;;;;;5113724;28;20032;-81
2022/02/08 09:35:52;;;;;;;4.20;0.65;;;17.90;66.40;;;;;;5094863;28;20028;-80
2022/02/08 09:38:19;;;;;;;5.45;0.60;;;17.90;66.30;;;;;;5113790;28;20020;-78
2022/02/08 09:40:46;;;;;;;4.10;0.60;;;18.00;66.20;;;;;;5113407;28;20478;-75
2022/02/08 09:43:13;;;;;;;4.78;0.60;;;18.00;66.20;;;;;;5113508;28;20023;-77
2022/02/08 09:45:45;;;;;;;4.40;0.60;;;18.00;66.00;;;;;;5112811;28;20058;-77
2022/02/08 09:48:19;;;;;;;2.55;0.60;;;18.10;65.90;;;;;;5113820;28;20020;-76
2022/02/08 09:50:47;;;;;;;4.05;0.68;;;18.10;65.60;;;;;;5113157;28;20111;-76
2022/02/08 09:53:19;;;;;;;4.13;0.70;;;18.10;65.50;;;;;;5113242;28;20406;-76
2022/02/08 09:55:45;;;;;;;1.67;0.63;;;18.20;65.50;;;;;;5095140;28;20118;-77
2022/02/08 09:58:12;;;;;;;1.02;0.50;;;18.20;65.30;;;;;;5112418;28;20554;-75
2022/02/08 10:00:39;;;;;;;2.35;0.60;;;18.30;65.40;;;;;;5113156;28;20065;-76
2022/02/08 10:03:13;;;;;;;3.92;0.55;;;18.30;65.30;;;;;;5113269;28;20061;-76
2022/02/08 10:05:53;;;;;;;2.40;0.50;;;18.40;65.00;;;;;;5113205;28;20047;-75
2022/02/08 10:08:20;;;;;;;2.08;0.50;;;18.40;64.80;;;;;;5095191;28;20027;-75
2022/02/08 10:10:46;;;;;;;1.88;0.60;;;18.50;64.80;;;;;;5112752;28;20028;-77
2022/02/08 10:19:07;;;;;;;2.33;0.68;;;18.80;64.60;;;;;;5113066;28;20026;-76
2022/02/08 10:21:46;;;;;;;3.55;0.82;;;18.80;64.30;;;;;;5110886;28;20031;-76
2022/02/08 10:24:17;;;;;;;2.25;0.60;;;18.80;64.40;;;;;;5110354;28;20039;-77
2022/02/08 10:29:19;;;;;;;2.30;0.60;;;18.80;64.00;;;;;;5112811;28;20509;-77
2022/02/08 10:32:20;;;;;;;6.97;0.77;;;18.90;63.90;;;;;;5112417;28;20395;-77
2022/02/08 10:37:50;;;;;;;2.17;0.82;;;18.90;63.70;;;;;;5112436;28;20039;-77
2022/02/08 10:40:22;;;;;;;1.60;0.65;;;18.90;63.70;;;;;;5112553;28;20020;-77
2022/02/08 10:42:56;;;;;;;3.05;0.80;;;19.00;63.70;;;;;;5093535;28;20026;-77
2022/02/08 10:45:31;;;;;;;2.88;0.90;;;19.00;63.60;;;;;;5094185;28;20019;-77
2022/02/08 10:48:00;;;;;;;6.75;0.85;;;19.00;63.60;;;;;;5094232;28;20038;-77
2022/02/08 10:50:29;;;;;;;3.08;0.93;;;19.00;63.90;;;;;;5094354;28;20030;-77
2022/02/08 10:52:56;;;;;;;2.80;0.70;;;19.10;63.40;;;;;;5112712;28;20055;-76
2022/02/08 11:00:47;;;;;;;7.97;0.80;;;19.20;63.20;;;;;;5132532;27;20023;-77
2022/02/08 11:03:25;;;;;;;1.98;0.60;;;19.20;63.40;;;;;;5132653;27;20053;-77
2022/02/08 11:06:41;;;;;;;4.85;0.52;;;19.30;63.40;;;;;;5131644;27;20043;-76
2022/02/08 11:08:53;;;;;;;7.03;0.90;;;19.30;63.70;;;;;;5077998;28;20043;-76
2022/02/08 11:11:37;;;;;;;1.42;0.70;;;19.30;63.60;;;;;;5091441;28;20031;-77
2022/02/08 11:16:52;;;;;;;3.03;0.73;;;19.40;63.70;;;;;;5107572;28;20479;-80
2022/02/08 11:19:39;;;;;;;3.53;0.68;;;19.40;63.40;;;;;;5111779;28;20409;-79
2022/02/08 11:22:24;;;;;;;2.72;0.82;;;19.40;63.20;;;;;;5111758;28;20357;-82
2022/02/08 11:24:56;;;;;;;6.00;0.70;;;19.50;63.10;;;;;;5111253;27;20426;-77
2022/02/08 11:27:22;;;;;;;1.52;0.70;;;19.60;66.50;;;;;;5111430;28;20471;-78
2022/02/08 11:29:57;;;;;;;3.75;0.50;;;19.50;63.20;;;;;;5111500;28;20513;-77
2022/02/08 11:32:46;;;;;;;3.90;0.52;;;19.50;63.00;;;;;;5111652;28;20100;-77
2022/02/08 11:52:04;;;;;;;1.92;0.55;;;19.70;62.30;;;;;;5111059;28;20050;-77
2022/02/08 11:59:46;;;;;;;3.97;0.50;;;19.80;62.00;;;;;;5111105;28;20375;-78
2022/02/08 12:07:45;;;;;;;2.03;0.40;;;19.80;61.60;;;;;;5090897;28;20063;-78
2022/02/08 12:28:05;;;;;;;2.60;0.63;;;19.90;61.20;;;;;;5110237;28;20498;-77
2022/02/08 12:59:16;;;;;;;6.82;0.70;;;19.90;62.00;;;;;;5111595;27;20498;-76
2022/02/08 14:02:09;;;;;;;3.25;0.70;;;20.10;62.40;;;;;;5109972;28;20069;-77
2022/02/08 14:07:24;;;;;;;1.15;0.40;;;20.20;62.40;;;;;;5094540;28;20081;-76
2022/02/08 14:10:02;;;;;;;3.80;0.80;;;20.20;62.40;;;;;;5093781;28;20034;-77
2022/02/08 14:15:28;;;;;;;4.63;0.85;;;20.20;62.40;;;;;;5112510;28;20059;-77
2022/02/08 14:18:11;;;;;;;1.77;0.50;;;20.20;62.40;;;;;;5111669;28;20023;-77
2022/02/08 14:25:51;;;;;;;5.65;0.60;;;20.20;62.40;;;;;;5111544;28;20505;-77
2022/02/08 14:31:21;;;;;;;2.65;0.60;;;20.20;62.60;;;;;;5112488;28;20027;-77
2022/02/08 14:33:53;;;;;;;1.90;1.00;;;20.20;62.50;;;;;;5112064;28;20024;-77
2022/02/08 15:05:38;;;;;;;1.50;0.40;;;20.20;62.10;;;;;;5111171;28;20051;-77
2022/02/08 15:08:17;;;;;;;3.65;0.80;;;20.20;62.10;;;;;;5111750;28;20502;-76
2022/02/08 15:10:49;;;;;;;2.83;0.80;;;20.20;62.00;;;;;;5091267;28;20030;-77
2022/02/08 15:13:17;;;;;;;1.83;0.80;;;20.20;62.00;;;;;;5096498;28;20027;-77
2022/02/08 15:18:09;;;;;;;1.58;0.40;;;20.20;61.90;;;;;;5110380;28;20030;-76
2022/02/08 15:20:35;;;;;;;9.75;0.60;;;20.20;61.80;;;;;;5111469;28;20398;-77
2022/02/08 15:23:03;;;;;;;1.77;0.60;;;20.20;61.80;;;;;;5111726;28;20015;-76
2022/02/08 15:25:30;;;;;;;5.18;0.73;;;20.20;61.70;;;;;;5093941;28;20380;-78
2022/02/08 15:28:02;;;;;;;2.83;0.60;;;20.20;61.80;;;;;;5093471;28;20224;-78
2022/02/08 15:30:29;;;;;;;3.60;0.68;;;20.20;61.90;;;;;;5111698;28;20027;-77
2022/02/08 15:32:55;;;;;;;1.95;0.70;;;20.20;62.00;;;;;;5093035;28;20023;-77
2022/02/08 15:35:20;;;;;;;3.80;0.50;;;20.20;62.00;;;;;;5111568;28;20030;-77
2022/02/08 15:37:46;;;;;;;2.08;0.75;;;20.20;62.10;;;;;;5111015;28;20032;-76
2022/02/08 15:40:14;;;;;;;5.05;0.50;;;20.10;62.00;;;;;;5111550;28;20068;-76
2022/02/08 15:42:41;;;;;;;2.08;0.52;;;20.10;62.00;;;;;;5111078;28;20089;-76
2022/02/08 15:45:23;;;;;;;1.05;0.50;;;;;;;;;;5091867;28;20044;-76
2022/02/08 15:47:50;;;;;;;3.00;0.57;;;20.20;61.70;;;;;;5110471;28;20020;-78
2022/02/08 15:50:30;;;;;;;3.17;0.60;;;20.10;62.20;;;;;;5111379;28;20501;-77
2022/02/08 15:56:20;;;;;;;0.90;0.50;;;20.10;62.40;;;;;;5112406;28;20023;-76
2022/02/08 16:08:45;;;;;;;2.90;0.88;;;20.10;62.90;;;;;;5113571;28;20020;-75
2022/02/08 16:13:50;;;;;;;2.47;0.60;;;20.40;62.30;;;;;;5110586;27;20020;-75
2022/02/08 16:22:09;;;;;;;2.28;0.70;;;;;;;;;;5108471;28;20035;-78
2022/02/08 16:24:51;;;;;;;3.97;0.50;;;;;;;;;;5108726;28;20044;-75
2022/02/08 16:57:16;;;;;;;0.90;0.40;;;;;;;;;;5108978;28;20031;-75
2022/02/08 16:59:44;;;;;;;6.30;0.57;;;;;;;;;;5109017;28;20058;-75
2022/02/08 17:02:16;;;;;;;1.25;0.57;;;;;;;;;;5089162;28;20515;-75
2022/02/08 17:04:42;;;;;;;1.35;0.40;;;;;;;;;;5108193;28;20032;-75
2022/02/08 17:07:08;;;;;;;3.45;0.40;;;;;;;;;;5107220;28;20023;-74
2022/02/08 17:18:02;;;;;;;1.35;0.50;;;;;;;;;;5107734;27;20032;-75
2022/02/08 17:49:54;;;;;;;7.53;0.68;;;20.40;64.60;;;;;;5108372;28;20387;-76
2022/02/08 17:52:20;;;;;;;1.42;0.65;;;20.40;64.60;;;;;;5115619;27;20049;-76
2022/02/08 17:54:46;;;;;;;1.38;0.45;;;;;;;;;;5122653;27;20477;-77
2022/02/08 17:57:15;;;;;;;2.83;0.60;;;;;;;;;;5112941;28;20084;-77
2022/02/08 17:59:41;;;;;;;2.97;0.45;;;;;;;;;;5112138;28;20027;-76
2022/02/08 18:02:11;;;;;;;11.57;0.50;;;;;;;;;;5112843;28;20098;-75
2022/02/08 18:04:37;;;;;;;1.33;0.43;;;;;;;;;;5112866;28;20127;-76
2022/02/08 18:07:03;;;;;;;1.55;0.45;;;;;;;;;;5112953;28;20063;-76
2022/02/08 18:09:29;;;;;;;4.32;0.85;;;;;;;;;;5112961;28;20028;-76
2022/02/08 18:11:59;;;;;;;2.92;0.50;;;;;;;;;;5112785;28;20054;-76
2022/02/08 18:14:27;;;;;;;2.63;0.50;;;;;;;;;;5113066;28;20020;-76
2022/02/08 18:17:06;;;;;;;1.38;0.50;;;;;;;;;;5112550;28;20016;-75
2022/02/08 18:19:37;;;;;;;3.22;0.60;;;;;;;;;;5093792;28;20027;-75
2022/02/08 18:24:59;;;;;;;1.27;0.40;;;;;;;;;;5112456;28;20066;-76
2022/02/08 18:27:40;;;;;;;2.03;0.60;;;;;;;;;;5112450;28;20026;-76
2022/02/08 19:12:53;;;;;;;1.23;0.32;;;;;;;;;;5112028;28;20065;-77
2022/02/08 19:15:38;;;;;;;0.85;0.43;;;;;;;;;;5092937;28;20035;-76
2022/02/08 19:20:39;;;;;;;1.25;0.50;;;;;;;;;;5111249;28;20110;-77
2022/02/08 19:23:05;;;;;;;1.30;0.50;;;;;;;;;;5106232;28;20027;-77
2022/02/08 19:25:31;;;;;;;4.07;0.73;;;;;;;;;;5111163;28;20112;-78
2022/02/08 19:27:58;;;;;;;3.35;0.50;;;;;;;;;;5111402;28;20028;-77
2022/02/08 19:30:24;;;;;;;2.15;0.35;;;;;;;;;;5111188;28;20028;-78
2022/02/08 19:32:50;;;;;;;3.13;0.50;;;;;;;;;;5109871;28;20761;-77
2022/02/08 19:35:16;;;;;;;2.05;0.40;;;;;;;;;;5111480;28;20035;-78
2022/02/08 19:37:45;;;;;;;3.28;0.70;;;;;;;;;;5110961;28;20024;-78
2022/02/08 19:40:11;;;;;;;2.38;0.40;;;;;;;;;;5111641;28;20421;-78
2022/02/08 19:42:37;;;;;;;1.95;0.50;;;;;;;;;;5111238;28;20499;-77
2022/02/08 19:45:16;;;;;;;2.35;0.50;;;;;;;;;;5111467;28;20082;-79
2022/02/08 19:47:42;;;;;;;1.63;0.60;;;;;;;;;;5111315;28;20141;-78
2022/02/08 19:50:08;;;;;;;1.10;0.30;;;;;;;;;;5111545;28;20062;-78
2022/02/08 19:52:35;;;;;;;1.58;0.40;;;;;;;;;;5094170;28;20016;-77
2022/02/08 19:57:49;;;;;;;2.40;0.70;;;;;;;;;;5111458;28;20073;-75
2022/02/08 20:00:20;;;;;;;1.08;0.45;;;;;;;;;;5093060;28;20032;-77
2022/02/08 20:02:50;;;;;;;3.13;0.45;;;;;;;;;;5111202;28;20012;-80
2022/02/08 20:05:16;;;;;;;1.15;0.50;;;;;;;;;;5092763;28;20380;-77
2022/02/08 20:07:43;;;;;;;2.10;0.70;;;;;;;;;;5111071;28;20023;-77
2022/02/08 20:10:09;;;;;;;4.45;1.13;;;;;;;;;;5111262;28;20142;-78
2022/02/08 20:12:35;;;;;;;1.85;1.02;;;;;;;;;;5111044;28;20051;-77
2022/02/08 20:15:02;;;;;;;5.72;1.92;;;;;;;;;;5092967;28;20028;-77
2022/02/08 20:17:28;;;;;;;2.33;1.35;;;;;;;;;;5093163;28;20077;-77
2022/02/08 20:19:55;;;;;;;2.63;1.13;;;;;;;;;;5110951;28;20032;-77
2022/02/08 20:22:22;;;;;;;2.25;1.10;;;;;;;;;;5111124;28;20020;-77
2022/02/08 20:24:51;;;;;;;1.83;1.00;;;;;;;;;;5110959;28;20060;-77
2022/02/08 20:29:54;;;;;;;2.38;1.00;;;;;;;;;;5110909;28;20472;-77
2022/02/08 20:32:20;;;;;;;3.10;1.20;;;;;;;;;;5111180;28;20909;-77
2022/02/08 20:34:46;;;;;;;1.77;0.80;;;;;;;;;;5110676;28;20043;-77
2022/02/08 20:37:12;;;;;;;2.47;0.80;;;;;;;;;;5092862;28;20092;-76
2022/02/08 20:39:38;;;;;;;1.63;0.95;;;;;;;;;;5109796;28;20028;-77
2022/02/08 20:42:05;;;;;;;1.83;1.10;;;;;;;;;;5094386;28;20031;-76
2022/02/08 20:44:34;;;;;;;1.60;0.70;;;;;;;;;;5095917;28;20418;-76
2022/02/08 20:47:06;;;;;;;1.67;0.90;;;;;;;;;;5114298;28;20023;-76
2022/02/08 20:49:32;;;;;;;1.25;0.82;;;;;;;;;;5111728;28;20065;-76
2022/02/08 20:51:58;;;;;;;1.77;0.98;;;;;;;;;;5114671;28;20073;-76
2022/02/08 20:54:29;;;;;;;2.78;0.88;;;;;;;;;;5114321;28;20042;-76
2022/02/08 20:57:10;;;;;;;1.25;0.70;;;;;;;;;;5095796;28;20026;-76
2022/02/08 20:59:36;;;;;;;1.65;0.60;;;;;;;;;;5111879;28;20020;-77
2022/02/08 21:02:02;;;;;;;2.03;0.70;;;;;;;;;;5113760;28;20027;-76
2022/02/08 21:04:40;;;;;;;1.45;0.80;;;;;;;;;;5113849;28;20032;-76
2022/02/08 21:07:06;;;;;;;3.08;1.17;;;;;;;;;;5095343;28;20077;-77
2022/02/08 21:09:32;;;;;;;2.13;0.90;;;;;;;;;;5113348;28;20020;-77
2022/02/08 21:12:16;;;;;;;1.90;0.85;;;;;;;;;;5113867;28;20072;-77
2022/02/08 21:14:42;;;;;;;0.95;0.50;;;;;;;;;;5112307;28;20034;-77
2022/02/08 21:17:09;;;;;;;1.58;0.80;;;;;;;;;;5114109;28;20027;-78
2022/02/08 21:19:35;;;;;;;1.42;0.60;;;;;;;;;;5095408;28;20119;-77
2022/02/08 21:22:01;;;;;;;1.35;0.60;;;;;;;;;;5113953;28;20106;-77
2022/02/08 21:24:29;;;;;;;1.05;0.60;;;;;;;;;;5114165;28;20054;-77
2022/02/08 21:26:59;;;;;;;2.50;0.90;;;;;;;;;;5114112;28;20482;-76
2022/02/08 21:53:42;;;;;;;1.80;0.60;;;;;;;;;;5112414;28;20513;-77
2022/02/08 21:56:08;;;;;;;1.33;0.70;;;;;;;;;;5112564;28;20509;-77
2022/02/08 21:58:34;;;;;;;0.85;0.60;;;;;;;;;;5112244;28;20020;-77
2022/02/08 22:01:00;;;;;;;1.67;0.65;;;;;;;;;;5112529;28;20391;-76
2022/02/08 22:03:27;;;;;;;1.58;0.60;;;;;;;;;;5094301;28;20062;-76
2022/02/08 22:05:53;;;;;;;2.85;1.00;;;;;;;;;;5112371;28;20090;-76
2022/02/08 22:08:33;;;;;;;1.00;0.50;;;;;;;;;;5094133;28;20015;-76
2022/02/08 22:19:30;;;;;;;1.42;0.80;;;;;;;;;;5111851;28;20105;-76
2022/02/08 22:22:00;;;;;;;2.55;0.60;;;;;;;;;;5106703;28;20495;-76
2022/02/08 22:24:36;;;;;;;1.35;0.60;;;;;;;;;;5093740;28;20236;-77
2022/02/08 22:32:16;;;;;;;0.95;0.50;;;;;;;;;;5112571;28;20376;-77
2022/02/08 22:34:48;;;;;;;3.25;0.80;;;;;;;;;;5112060;28;20032;-77
2022/02/08 22:37:36;;;;;;;1.42;0.60;;;;;;;;;;5111627;27;20016;-77
2022/02/08 22:40:12;;;;;;;1.17;0.60;;;;;;;;;;5092934;28;20027;-77
2022/02/08 22:42:45;;;;;;;1.90;0.80;;;;;;;;;;5093831;28;20019;-77
2022/02/08 22:45:15;;;;;;;0.88;0.65;;;;;;;;;;5112376;28;20027;-78
2022/02/08 22:47:42;;;;;;;1.27;0.40;;;;;;;;;;5093109;28;20022;-77
2022/02/08 22:50:09;;;;;;;2.03;0.70;;;;;;;;;;5092407;28;20031;-77